Time;durP1;ratioP1;P1;durP2;ratioP2;P2;SDS_P1;SDS_P2;PMS_P1;PMS_P2;Temp;Humidity;BMP_temperature;BMP_pressure;BME280_temperature;BME280_humidity;BME280_pressure;Samples;Min_cycle;Max_cycle;Signal;HPM_P1;HPM_P2
2023/09/14 00:00:14;;;;;;;5.53;3.07;;;14.10;99.90;;;;;;6224169;23;20166;-91
2023/09/14 00:02:41;;;;;;;4.70;2.73;;;13.20;99.90;;;;;;6248425;23;20152;-92
2023/09/14 00:05:06;;;;;;;5.23;2.97;;;13.40;99.90;;;;;;6225421;23;20207;-92
2023/09/14 00:07:32;;;;;;;5.47;3.27;;;13.20;99.90;;;;;;6249974;23;20519;-91
2023/09/14 00:09:58;;;;;;;4.70;3.40;;;14.10;99.90;;;;;;6250957;23;20189;-92
2023/09/14 00:12:26;;;;;;;3.47;2.80;;;13.90;99.90;;;;;;6251619;22;20170;-91
2023/09/14 00:14:51;;;;;;;7.27;2.93;;;14.10;99.90;;;;;;6251716;23;20164;-91
2023/09/14 00:17:17;;;;;;;10.17;3.90;;;13.70;99.90;;;;;;6251187;23;20229;-89
2023/09/14 00:19:43;;;;;;;5.83;3.10;;;13.20;99.90;;;;;;6227870;23;20190;-93
2023/09/14 00:22:08;;;;;;;4.93;3.23;;;13.40;99.90;;;;;;6251331;23;20170;-92
2023/09/14 00:24:35;;;;;;;5.27;3.20;;;13.20;99.90;;;;;;6251326;23;20191;-91
2023/09/14 00:27:00;;;;;;;6.63;3.53;;;13.30;99.90;;;;;;6225145;23;20262;-92
2023/09/14 00:29:27;;;;;;;5.27;3.07;;;13.20;99.90;;;;;;6251546;23;20604;-92
2023/09/14 00:31:52;;;;;;;6.80;2.80;;;13.20;99.90;;;;;;6252736;23;20156;-91
2023/09/14 00:34:18;;;;;;;6.07;3.00;;;13.10;99.90;;;;;;6257354;22;20154;-83
2023/09/14 00:36:44;;;;;;;8.37;3.13;;;13.10;99.90;;;;;;6259279;22;20187;-91
2023/09/14 00:39:10;;;;;;;4.57;2.90;;;13.50;99.90;;;;;;6249403;23;20259;-92
2023/09/14 00:41:35;;;;;;;8.03;3.13;;;14.60;99.90;;;;;;6255400;23;20139;-90
2023/09/14 00:44:01;;;;;;;3.83;2.87;;;13.00;99.90;;;;;;6271524;22;20187;-92
2023/09/14 00:46:29;;;;;;;7.07;3.03;;;13.20;99.90;;;;;;6257476;23;20190;-92
2023/09/14 00:48:56;;;;;;;7.30;3.33;;;13.00;99.90;;;;;;6248946;23;20475;-92
2023/09/14 00:51:22;;;;;;;6.13;3.67;;;13.40;99.90;;;;;;6249092;23;20213;-91
2023/09/14 00:53:50;;;;;;;4.87;3.37;;;13.00;99.90;;;;;;6248769;23;20506;-92
2023/09/14 00:56:17;;;;;;;4.47;3.27;;;13.40;99.90;;;;;;6249143;23;20612;-90
2023/09/14 00:58:46;;;;;;;5.67;3.53;;;14.50;99.90;;;;;;6251077;23;20162;-90
2023/09/14 01:01:14;;;;;;;5.43;3.30;;;14.40;99.90;;;;;;6250659;23;20159;-91
2023/09/14 01:03:40;;;;;;;6.20;3.40;;;12.90;99.90;;;;;;6225297;23;20234;-92
2023/09/14 01:06:06;;;;;;;7.03;3.37;;;13.50;99.90;;;;;;6250703;23;20205;-93
2023/09/14 01:08:32;;;;;;;5.77;3.57;;;13.30;99.90;;;;;;6248639;23;20596;-91
2023/09/14 01:10:58;;;;;;;6.37;3.73;;;13.00;99.90;;;;;;6248934;23;20151;-92
2023/09/14 01:13:44;;;;;;;8.20;3.60;;;13.40;99.90;;;;;;6249022;23;20156;-92
2023/09/14 01:16:26;;;;;;;7.00;3.50;;;12.70;99.90;;;;;;6248703;23;20189;-92
2023/09/14 01:19:05;;;;;;;4.87;3.07;;;12.70;99.90;;;;;;6249332;23;20595;-90
2023/09/14 01:21:37;;;;;;;5.07;3.50;;;13.00;99.90;;;;;;6248467;23;20184;-89
2023/09/14 01:24:23;;;;;;;5.70;3.80;;;12.70;99.90;;;;;;6248758;23;20179;-90
2023/09/14 01:26:50;;;;;;;6.07;3.70;;;12.70;99.90;;;;;;6249604;23;20180;-91
2023/09/14 01:29:15;;;;;;;8.27;3.80;;;12.60;99.90;;;;;;6248726;23;20160;-90
2023/09/14 01:31:42;;;;;;;4.27;3.43;;;13.80;99.90;;;;;;6248302;23;20160;-92
2023/09/14 01:34:08;;;;;;;6.33;3.33;;;12.90;99.90;;;;;;6250218;23;20201;-91
2023/09/14 01:36:46;;;;;;;5.40;3.83;;;12.70;99.90;;;;;;6250744;22;20179;-90
2023/09/14 01:39:14;;;;;;;5.27;3.60;;;12.90;99.90;;;;;;6250820;23;20163;-92
2023/09/14 01:41:41;;;;;;;6.00;3.77;;;12.60;99.90;;;;;;6251047;23;20167;-91
2023/09/14 01:44:07;;;;;;;7.60;3.53;;;13.80;99.90;;;;;;6250624;23;20642;-92
2023/09/14 01:46:33;;;;;;;5.03;3.63;;;12.80;99.90;;;;;;6225830;23;20197;-90
2023/09/14 01:48:59;;;;;;;8.63;4.17;;;12.60;99.90;;;;;;6250879;23;20179;-91
2023/09/14 01:51:24;;;;;;;4.57;3.43;;;12.60;99.90;;;;;;6250843;23;20160;-92
2023/09/14 01:53:50;;;;;;;7.23;3.60;;;12.60;99.90;;;;;;6251842;23;20166;-92
2023/09/14 01:56:16;;;;;;;4.80;3.67;;;12.60;99.90;;;;;;6251125;23;20314;-91
2023/09/14 01:58:42;;;;;;;5.47;3.33;;;12.60;99.90;;;;;;6226130;23;20167;-91
2023/09/14 02:01:08;;;;;;;10.47;3.47;;;12.90;99.90;;;;;;6250944;23;20226;-92
2023/09/14 02:03:34;;;;;;;6.43;3.47;;;12.50;99.90;;;;;;6251945;23;20266;-92
2023/09/14 02:06:03;;;;;;;6.70;3.90;;;12.60;99.90;;;;;;6250947;23;20183;-91
2023/09/14 02:08:30;;;;;;;5.90;4.10;;;13.20;99.90;;;;;;6251095;23;20160;-90
2023/09/14 02:10:56;;;;;;;7.03;4.27;;;12.50;99.90;;;;;;6250282;23;20177;-92
2023/09/14 02:13:21;;;;;;;6.90;3.80;;;12.40;99.90;;;;;;6250431;23;20163;-92
2023/09/14 02:15:47;;;;;;;5.07;3.40;;;12.50;99.90;;;;;;6250302;23;20160;-91
2023/09/14 02:18:13;;;;;;;6.80;3.97;;;12.50;99.90;;;;;;6251098;23;20167;-92
2023/09/14 02:20:41;;;;;;;6.50;3.60;;;12.40;99.90;;;;;;6251735;23;20488;-91
2023/09/14 02:23:08;;;;;;;7.73;3.57;;;12.40;99.90;;;;;;6250099;23;20255;-90
2023/09/14 02:25:34;;;;;;;6.53;4.10;;;12.80;99.90;;;;;;6250672;23;20189;-91
2023/09/14 02:27:59;;;;;;;9.47;3.83;;;12.50;99.90;;;;;;6251531;23;20160;-92
2023/09/14 02:30:28;;;;;;;8.97;3.73;;;12.50;99.90;;;;;;6225651;23;20163;-92
2023/09/14 02:32:54;;;;;;;7.53;3.83;;;12.50;99.90;;;;;;6226103;23;20626;-93
2023/09/14 02:35:19;;;;;;;9.90;3.20;;;12.40;99.90;;;;;;6255559;23;20144;-85
2023/09/14 02:37:45;;;;;;;8.27;4.20;;;12.90;99.90;;;;;;6259880;22;20185;-90
2023/09/14 02:40:12;;;;;;;5.67;3.60;;;12.40;99.90;;;;;;6250855;23;20576;-92
2023/09/14 02:42:38;;;;;;;9.03;3.60;;;12.40;99.90;;;;;;6251408;23;20156;-90
2023/09/14 02:45:05;;;;;;;5.07;3.27;;;11.50;99.90;;;;;;6251078;23;20187;-92
2023/09/14 02:47:30;;;;;;;4.77;2.90;;;12.30;99.90;;;;;;6250273;23;20254;-91
2023/09/14 02:49:56;;;;;;;6.33;2.60;;;12.60;99.90;;;;;;6249660;23;20475;-91
2023/09/14 02:52:22;;;;;;;6.37;2.63;;;12.10;99.90;;;;;;6250702;23;20588;-91
2023/09/14 02:54:47;;;;;;;4.77;2.97;;;12.60;99.90;;;;;;6251428;23;20385;-90
2023/09/14 02:57:13;;;;;;;5.80;3.03;;;12.10;99.90;;;;;;6250094;23;20179;-91
2023/09/14 02:59:39;;;;;;;4.40;3.00;;;12.10;99.90;;;;;;6249742;23;20182;-92
2023/09/14 03:02:04;;;;;;;5.77;3.40;;;12.80;99.90;;;;;;6249530;23;20174;-90
2023/09/14 03:04:30;;;;;;;3.47;2.63;;;12.10;99.90;;;;;;6250530;23;20185;-93
2023/09/14 03:06:56;;;;;;;5.53;2.60;;;11.90;99.90;;;;;;6250397;23;20615;-92
2023/09/14 03:09:22;;;;;;;5.10;2.63;;;12.10;99.90;;;;;;6250903;23;20162;-92
2023/09/14 03:11:48;;;;;;;2.90;2.60;;;11.80;99.90;;;;;;6255122;23;20171;-87
2023/09/14 03:14:14;;;;;;;5.43;2.90;;;11.80;99.90;;;;;;6256897;23;20572;-90
2023/09/14 03:16:41;;;;;;;6.60;3.13;;;11.80;99.90;;;;;;6249804;23;20179;-92
2023/09/14 03:19:06;;;;;;;4.33;3.03;;;11.90;99.90;;;;;;6249942;23;20285;-91
2023/09/14 03:21:32;;;;;;;5.13;2.50;;;12.10;99.90;;;;;;6250484;23;20210;-92
2023/09/14 03:23:58;;;;;;;6.13;2.60;;;11.70;99.90;;;;;;6251623;23;20663;-91
2023/09/14 03:26:25;;;;;;;8.57;2.60;;;11.60;99.90;;;;;;6250406;23;20179;-91
2023/09/14 03:28:50;;;;;;;4.50;2.50;;;13.30;99.90;;;;;;6249678;23;20160;-90
2023/09/14 03:31:17;;;;;;;5.03;2.80;;;11.50;99.90;;;;;;6249839;23;20506;-91
2023/09/14 03:33:45;;;;;;;5.63;2.83;;;11.70;99.90;;;;;;6250134;23;20159;-91
2023/09/14 03:36:11;;;;;;;7.47;2.83;;;11.40;99.90;;;;;;6249231;23;20666;-90
2023/09/14 03:38:37;;;;;;;6.27;2.90;;;11.40;99.90;;;;;;6249991;23;20160;-92
2023/09/14 03:41:03;;;;;;;11.73;3.07;;;11.40;99.90;;;;;;6250362;23;20170;-91
2023/09/14 03:43:29;;;;;;;8.17;3.00;;;13.00;99.90;;;;;;6224532;23;20188;-91
2023/09/14 03:46:00;;;;;;;5.60;2.73;;;11.30;99.90;;;;;;6250843;23;20176;-91
2023/09/14 03:48:25;;;;;;;8.17;3.07;;;11.30;99.90;;;;;;6250609;23;20273;-91
2023/09/14 03:50:54;;;;;;;9.93;3.10;;;11.30;99.90;;;;;;6249690;23;20536;-92
2023/09/14 03:53:19;;;;;;;4.83;2.83;;;11.20;99.90;;;;;;6250502;23;20159;-88
2023/09/14 03:55:45;;;;;;;7.90;2.67;;;11.20;99.90;;;;;;6249923;23;20623;-91
2023/09/14 03:58:12;;;;;;;8.87;3.10;;;11.20;99.90;;;;;;6248805;23;20488;-92
2023/09/14 04:00:38;;;;;;;7.43;2.97;;;11.20;99.90;;;;;;6250213;23;20163;-90
2023/09/14 04:03:04;;;;;;;6.97;3.67;;;11.90;99.90;;;;;;6249557;23;20247;-92
2023/09/14 04:05:29;;;;;;;8.03;3.73;;;11.20;99.90;;;;;;6250000;23;20176;-91
2023/09/14 04:07:55;;;;;;;10.47;3.63;;;11.10;99.90;;;;;;6249027;23;20211;-92
2023/09/14 04:10:21;;;;;;;12.17;3.30;;;12.40;99.90;;;;;;6248831;23;20162;-92
2023/09/14 04:12:47;;;;;;;6.63;3.57;;;11.20;99.90;;;;;;6248434;23;20235;-90
2023/09/14 04:15:12;;;;;;;4.30;2.97;;;11.30;99.90;;;;;;6248799;23;20166;-91
2023/09/14 04:17:38;;;;;;;7.27;2.97;;;11.40;99.90;;;;;;6249459;23;20207;-91
2023/09/14 04:20:09;;;;;;;6.23;3.27;;;11.40;99.90;;;;;;6248469;23;20170;-91
2023/09/14 04:22:35;;;;;;;7.87;3.70;;;11.00;99.90;;;;;;6249161;23;20604;-90
2023/09/14 04:25:00;;;;;;;8.97;3.90;;;12.50;99.90;;;;;;6248550;23;20176;-91
2023/09/14 04:27:26;;;;;;;9.93;3.47;;;10.80;99.90;;;;;;6222907;23;20259;-91
2023/09/14 04:29:52;;;;;;;10.90;3.63;;;11.00;99.90;;;;;;6248858;23;20182;-91
2023/09/14 04:32:17;;;;;;;9.63;3.67;;;12.10;99.90;;;;;;6248234;23;20599;-91
2023/09/14 04:34:43;;;;;;;8.33;3.30;;;10.90;99.90;;;;;;6254180;23;20194;-92
2023/09/14 04:37:10;;;;;;;7.70;3.53;;;10.90;99.90;;;;;;6263773;23;20193;-92
2023/09/14 04:39:35;;;;;;;7.17;3.10;;;11.10;99.90;;;;;;6250070;23;20155;-92
2023/09/14 04:42:01;;;;;;;11.07;3.73;;;11.50;99.90;;;;;;6225213;23;20217;-91
2023/09/14 04:44:28;;;;;;;7.50;3.60;;;12.10;99.90;;;;;;6248621;23;20520;-91
2023/09/14 04:46:53;;;;;;;12.50;4.43;;;10.70;99.90;;;;;;6249602;23;20179;-90
2023/09/14 04:49:19;;;;;;;11.03;3.50;;;10.90;99.90;;;;;;6248721;23;20179;-90
2023/09/14 04:51:47;;;;;;;10.13;3.50;;;10.70;99.90;;;;;;6249178;23;20208;-92
2023/09/14 04:54:12;;;;;;;5.43;3.17;;;12.20;99.90;;;;;;6248525;23;20232;-92
2023/09/14 04:56:38;;;;;;;5.60;3.03;;;11.10;99.90;;;;;;6249528;23;20647;-92
2023/09/14 04:59:04;;;;;;;7.73;3.13;;;11.30;99.90;;;;;;6250149;23;20168;-90
2023/09/14 05:01:30;;;;;;;6.87;3.33;;;11.40;99.90;;;;;;6249193;23;20227;-92
2023/09/14 05:03:55;;;;;;;6.27;2.87;;;10.70;99.90;;;;;;6249294;23;20229;-90
2023/09/14 05:06:22;;;;;;;4.17;2.97;;;10.70;99.90;;;;;;6249061;23;20180;-92
2023/09/14 05:08:48;;;;;;;5.50;3.40;;;9.70;99.90;;;;;;6250458;23;20179;-89
2023/09/14 05:11:14;;;;;;;8.87;3.30;;;10.60;99.90;;;;;;6251616;23;20165;-90
2023/09/14 05:13:39;;;;;;;7.00;3.20;;;10.60;99.90;;;;;;6251218;23;20184;-90
2023/09/14 05:16:05;;;;;;;7.00;3.47;;;12.20;99.90;;;;;;6252559;23;20187;-89
2023/09/14 05:18:30;;;;;;;9.17;3.77;;;12.00;99.90;;;;;;6253881;23;20155;-90
2023/09/14 05:20:56;;;;;;;11.13;4.33;;;10.60;99.90;;;;;;6254586;23;20154;-90
2023/09/14 05:23:22;;;;;;;14.70;4.57;;;11.00;99.90;;;;;;6253892;23;20258;-90
2023/09/14 05:25:47;;;;;;;8.10;4.80;;;11.20;99.90;;;;;;6252629;23;20498;-91
2023/09/14 05:28:15;;;;;;;9.23;3.97;;;12.40;99.90;;;;;;6253403;22;20158;-88
2023/09/14 05:30:40;;;;;;;9.70;4.50;;;10.50;99.90;;;;;;6253326;22;20230;-89
2023/09/14 05:33:07;;;;;;;6.97;4.33;;;11.50;99.90;;;;;;6258339;22;20158;-87
2023/09/14 05:35:34;;;;;;;8.17;4.47;;;12.40;99.90;;;;;;6256484;23;20159;-90
2023/09/14 05:38:00;;;;;;;9.57;4.03;;;10.60;99.90;;;;;;6253426;23;20159;-91
2023/09/14 05:40:25;;;;;;;7.47;4.27;;;10.60;99.90;;;;;;6258017;23;20155;-90
2023/09/14 05:42:51;;;;;;;8.33;4.90;;;10.50;99.90;;;;;;6255600;23;20628;-91
2023/09/14 05:45:16;;;;;;;11.00;5.00;;;11.10;99.90;;;;;;6255305;23;20201;-88
2023/09/14 05:47:42;;;;;;;7.23;4.77;;;10.60;99.90;;;;;;6257103;22;20183;-91
2023/09/14 05:50:10;;;;;;;8.00;5.00;;;10.60;99.90;;;;;;6257262;22;20183;-91
2023/09/14 05:52:35;;;;;;;12.53;5.60;;;10.60;99.90;;;;;;6257660;22;20218;-90
2023/09/14 05:55:03;;;;;;;11.53;5.17;;;11.10;99.90;;;;;;6256342;23;20156;-91
2023/09/14 05:57:30;;;;;;;10.00;5.53;;;11.30;99.90;;;;;;6255754;23;20191;-91
2023/09/14 05:59:56;;;;;;;9.50;5.87;;;10.70;99.90;;;;;;6255195;23;20190;-91
2023/09/14 06:02:22;;;;;;;10.07;5.53;;;11.20;99.90;;;;;;6256068;23;20163;-90
2023/09/14 06:04:48;;;;;;;10.30;5.30;;;10.90;99.90;;;;;;6255282;23;20217;-92
2023/09/14 06:07:14;;;;;;;9.53;4.87;;;11.00;99.90;;;;;;6255211;23;20172;-90
2023/09/14 06:09:39;;;;;;;10.83;4.93;;;10.90;99.90;;;;;;6257469;23;20626;-90
2023/09/14 06:12:06;;;;;;;10.50;5.00;;;11.50;99.90;;;;;;6256086;23;20193;-90
2023/09/14 06:14:33;;;;;;;7.77;4.80;;;11.00;99.90;;;;;;6254335;23;20162;-90
2023/09/14 06:16:58;;;;;;;10.37;5.40;;;11.30;99.90;;;;;;6255147;23;20181;-90
2023/09/14 06:19:27;;;;;;;8.23;4.83;;;11.20;99.90;;;;;;6253592;23;20163;-90
2023/09/14 06:21:52;;;;;;;9.53;5.60;;;11.20;99.90;;;;;;6253924;23;20155;-91
2023/09/14 06:24:20;;;;;;;11.60;5.73;;;11.50;99.90;;;;;;6254113;22;20186;-91
2023/09/14 06:26:48;;;;;;;13.00;6.00;;;11.40;99.90;;;;;;6253164;23;20183;-91
2023/09/14 06:29:16;;;;;;;10.27;6.27;;;11.40;99.90;;;;;;6252825;23;20716;-91
2023/09/14 06:31:42;;;;;;;7.67;5.57;;;12.30;99.90;;;;;;6252718;23;20155;-91
2023/09/14 06:34:07;;;;;;;8.07;5.00;;;11.50;99.90;;;;;;6252471;23;20193;-91
2023/09/14 06:36:34;;;;;;;6.47;4.57;;;12.00;99.90;;;;;;6265449;22;20186;-91
2023/09/14 06:38:59;;;;;;;8.50;5.20;;;11.80;99.90;;;;;;6253215;23;20162;-92
2023/09/14 06:41:25;;;;;;;7.70;5.40;;;12.70;99.90;;;;;;6255019;23;20158;-91
2023/09/14 06:43:50;;;;;;;7.63;5.33;;;12.30;99.90;;;;;;6256175;23;20187;-92
2023/09/14 06:46:16;;;;;;;13.13;6.00;;;12.20;99.90;;;;;;6256676;23;20263;-88
2023/09/14 06:48:41;;;;;;;12.27;6.37;;;12.30;99.90;;;;;;6230465;23;20174;-91
2023/09/14 06:51:07;;;;;;;10.43;5.97;;;12.50;99.90;;;;;;6257267;23;20170;-91
2023/09/14 06:53:35;;;;;;;11.77;6.87;;;12.50;99.90;;;;;;6256902;22;20162;-92
2023/09/14 06:56:08;;;;;;;12.37;8.20;;;12.60;99.90;;;;;;6255992;23;20189;-90
2023/09/14 06:58:34;;;;;;;11.73;7.93;;;13.20;99.90;;;;;;6257211;22;20170;-91
2023/09/14 07:01:04;;;;;;;13.50;7.90;;;13.50;99.90;;;;;;6255404;23;20166;-92
2023/09/14 07:03:30;;;;;;;17.57;8.50;;;13.00;99.90;;;;;;6231623;23;20183;-91
2023/09/14 07:05:55;;;;;;;15.23;8.83;;;13.20;99.90;;;;;;6257299;22;20193;-91
2023/09/14 07:08:22;;;;;;;17.80;8.80;;;13.30;99.90;;;;;;6255888;23;20178;-91
2023/09/14 07:10:48;;;;;;;17.37;8.67;;;13.70;99.90;;;;;;6256588;23;20159;-91
2023/09/14 07:13:14;;;;;;;19.37;8.87;;;13.60;99.90;;;;;;6255847;23;20162;-92
2023/09/14 07:15:40;;;;;;;20.10;9.23;;;13.50;99.90;;;;;;6254921;23;20509;-91
2023/09/14 07:18:06;;;;;;;19.57;9.37;;;14.00;99.90;;;;;;6231024;23;20170;-93
2023/09/14 07:20:32;;;;;;;16.70;9.30;;;13.80;99.90;;;;;;6256519;23;20152;-91
2023/09/14 07:22:57;;;;;;;16.27;9.67;;;13.80;99.90;;;;;;6257779;22;20282;-92
2023/09/14 07:25:23;;;;;;;19.50;9.83;;;14.20;99.90;;;;;;6255664;23;20179;-90
2023/09/14 07:27:48;;;;;;;18.37;10.23;;;14.10;99.90;;;;;;6258864;23;20179;-89
2023/09/14 07:30:14;;;;;;;18.20;10.07;;;15.50;99.90;;;;;;6256222;23;20183;-92
2023/09/14 07:32:42;;;;;;;23.43;9.97;;;15.20;99.90;;;;;;6256569;23;20175;-92
2023/09/14 07:35:08;;;;;;;17.37;9.57;;;14.50;99.90;;;;;;6256628;23;20214;-93
2023/09/14 07:37:34;;;;;;;26.73;11.40;;;14.60;99.90;;;;;;6258787;23;20172;-91
2023/09/14 07:40:00;;;;;;;23.50;11.47;;;15.20;99.90;;;;;;6257007;22;20661;-91
2023/09/14 07:42:26;;;;;;;22.63;10.50;;;15.80;99.90;;;;;;6260355;23;20186;-88
2023/09/14 07:44:51;;;;;;;20.70;11.47;;;14.90;99.90;;;;;;6255987;23;20182;-91
2023/09/14 07:47:17;;;;;;;25.53;11.80;;;15.20;99.90;;;;;;6255225;23;20202;-89
2023/09/14 07:49:45;;;;;;;22.43;10.87;;;15.60;99.90;;;;;;6253935;23;20172;-91
2023/09/14 07:52:12;;;;;;;19.23;11.17;;;15.70;99.90;;;;;;6228200;23;20172;-91
2023/09/14 07:54:38;;;;;;;21.37;11.23;;;14.40;99.90;;;;;;6254401;23;20215;-92
2023/09/14 07:57:04;;;;;;;23.00;10.50;;;16.10;99.90;;;;;;6255365;23;20180;-91
2023/09/14 07:59:29;;;;;;;16.93;10.23;;;15.90;99.90;;;;;;6253644;23;20198;-91
2023/09/14 08:01:55;;;;;;;20.93;11.13;;;16.10;99.90;;;;;;6255530;23;20159;-90
2023/09/14 08:04:20;;;;;;;24.17;11.00;;;15.40;99.90;;;;;;6254807;23;20175;-92
2023/09/14 08:06:46;;;;;;;18.50;9.97;;;16.20;99.90;;;;;;6252670;23;20210;-92
2023/09/14 08:09:12;;;;;;;19.00;10.40;;;16.40;99.90;;;;;;6252374;23;20185;-91
2023/09/14 08:11:38;;;;;;;18.70;10.57;;;16.60;99.90;;;;;;6253276;23;20159;-90
2023/09/14 08:14:04;;;;;;;16.67;10.77;;;16.80;99.90;;;;;;6253830;23;20167;-90
2023/09/14 08:16:31;;;;;;;23.57;9.83;;;16.70;99.90;;;;;;6252675;23;20183;-92
2023/09/14 08:18:57;;;;;;;16.33;10.47;;;16.80;99.90;;;;;;6226893;23;20247;-91
2023/09/14 08:21:23;;;;;;;21.63;10.80;;;16.70;99.90;;;;;;6252108;22;20155;-91
2023/09/14 08:23:48;;;;;;;19.87;9.87;;;17.00;99.90;;;;;;6251476;23;20266;-90
2023/09/14 08:26:14;;;;;;;20.53;9.40;;;17.60;99.90;;;;;;6249764;23;20175;-91
2023/09/14 08:28:40;;;;;;;17.13;9.40;;;17.20;99.90;;;;;;6249101;23;20159;-92
2023/09/14 08:31:07;;;;;;;15.00;8.90;;;17.30;99.90;;;;;;6251354;23;20158;-90
2023/09/14 08:33:32;;;;;;;15.37;9.33;;;17.40;99.90;;;;;;6224230;23;20186;-91
2023/09/14 08:35:59;;;;;;;16.43;9.00;;;17.50;99.90;;;;;;6252422;22;20715;-90
2023/09/14 08:38:26;;;;;;;18.40;9.87;;;17.60;99.90;;;;;;6263748;22;20564;-92
2023/09/14 08:41:00;;;;;;;17.23;9.60;;;17.70;99.90;;;;;;6250775;23;20162;-91
2023/09/14 08:43:27;;;;;;;18.47;10.20;;;17.80;99.90;;;;;;6251942;22;20171;-90
2023/09/14 08:45:53;;;;;;;17.67;11.33;;;17.90;99.90;;;;;;6250423;22;20172;-90
2023/09/14 08:48:22;;;;;;;15.00;9.70;;;18.00;99.90;;;;;;6247883;23;20625;-89
2023/09/14 08:50:48;;;;;;;18.17;10.27;;;18.20;99.90;;;;;;6248511;23;20178;-90
2023/09/14 08:53:16;;;;;;;18.63;11.03;;;18.20;99.90;;;;;;6248032;23;20183;-91
2023/09/14 08:55:43;;;;;;;17.43;10.47;;;18.30;99.90;;;;;;6248276;23;20163;-92
2023/09/14 08:58:12;;;;;;;19.00;10.10;;;18.20;99.90;;;;;;6250063;22;20674;-91
2023/09/14 09:00:38;;;;;;;12.50;8.50;;;18.30;99.90;;;;;;6248900;23;20172;-91
2023/09/14 09:03:04;;;;;;;16.23;9.40;;;18.80;99.90;;;;;;6249724;22;20147;-88
2023/09/14 09:05:30;;;;;;;19.20;9.53;;;18.60;99.90;;;;;;6250147;22;20210;-89
2023/09/14 09:07:56;;;;;;;13.63;8.83;;;18.70;99.90;;;;;;6249401;23;20156;-90
2023/09/14 09:10:30;;;;;;;10.77;7.30;;;18.70;99.90;;;;;;6250628;22;20148;-90
2023/09/14 09:13:01;;;;;;;13.10;7.80;;;18.90;99.90;;;;;;6250610;22;20467;-90
2023/09/14 09:15:28;;;;;;;14.37;8.90;;;19.00;96.50;;;;;;6248585;23;20173;-91
2023/09/14 09:18:05;;;;;;;11.93;8.27;;;19.00;90.00;;;;;;6249647;22;20179;-90
2023/09/14 09:20:32;;;;;;;11.27;8.17;;;19.10;87.80;;;;;;6250888;22;20219;-91
2023/09/14 09:23:01;;;;;;;9.50;7.53;;;19.10;88.20;;;;;;6248427;23;20234;-90
2023/09/14 09:25:29;;;;;;;11.17;7.97;;;19.20;81.70;;;;;;6250387;22;20175;-91
2023/09/14 09:28:00;;;;;;;11.17;9.00;;;19.20;74.20;;;;;;6248707;23;20156;-90
2023/09/14 09:30:33;;;;;;;12.83;8.87;;;19.40;84.70;;;;;;6249188;23;20152;-90
2023/09/14 09:32:58;;;;;;;11.73;8.23;;;19.50;74.90;;;;;;6248967;23;20159;-92
2023/09/14 09:35:26;;;;;;;14.93;9.03;;;19.50;66.90;;;;;;6248854;23;20167;-90
2023/09/14 09:37:56;;;;;;;15.10;9.30;;;19.40;73.60;;;;;;6246833;23;20179;-91
2023/09/14 09:40:28;;;;;;;11.77;8.53;;;19.40;60.90;;;;;;6248525;23;20162;-89
2023/09/14 09:42:54;;;;;;;11.07;8.47;;;19.40;62.60;;;;;;6249248;23;20507;-90
2023/09/14 09:45:23;;;;;;;11.57;9.70;;;19.40;67.30;;;;;;6249028;23;20239;-90
2023/09/14 09:47:49;;;;;;;13.20;9.50;;;19.60;74.80;;;;;;6248739;23;20218;-89
2023/09/14 09:50:15;;;;;;;13.03;9.53;;;19.70;72.10;;;;;;6252099;22;20171;-90
2023/09/14 09:52:43;;;;;;;11.30;9.40;;;19.90;69.00;;;;;;6248730;23;20502;-89
2023/09/14 09:55:23;;;;;;;11.30;9.27;;;20.00;61.20;;;;;;6249569;23;20163;-92
2023/09/14 09:57:51;;;;;;;13.80;9.17;;;20.10;42.80;;;;;;6250563;22;20177;-89
2023/09/14 10:00:19;;;;;;;13.33;8.97;;;20.20;49.20;;;;;;6252269;22;20147;-90
2023/09/14 10:02:47;;;;;;;10.77;8.43;;;20.20;43.20;;;;;;6252441;22;20148;-90
2023/09/14 10:05:13;;;;;;;12.20;9.30;;;20.20;46.70;;;;;;6253044;22;20190;-90
2023/09/14 10:07:40;;;;;;;10.70;8.30;;;20.20;46.50;;;;;;6251063;23;20179;-90
2023/09/14 10:10:10;;;;;;;11.70;9.00;;;20.30;48.70;;;;;;6225326;23;20156;-90
2023/09/14 10:12:38;;;;;;;15.00;9.40;;;20.40;48.00;;;;;;6251004;23;20158;-93
2023/09/14 10:15:09;;;;;;;11.63;9.07;;;20.40;46.50;;;;;;6251930;22;20152;-91
2023/09/14 10:17:35;;;;;;;10.90;8.70;;;20.50;41.90;;;;;;6251117;23;20184;-91
2023/09/14 10:20:08;;;;;;;12.97;9.33;;;20.50;36.70;;;;;;6251867;22;20730;-89
2023/09/14 10:22:36;;;;;;;13.97;9.00;;;20.50;31.10;;;;;;6251139;23;20224;-90
2023/09/14 10:25:04;;;;;;;12.97;9.03;;;20.50;38.00;;;;;;6250398;23;20188;-92
2023/09/14 10:27:30;;;;;;;11.67;9.33;;;20.60;38.30;;;;;;6250227;23;20176;-93
2023/09/14 10:29:58;;;;;;;14.43;9.57;;;20.70;19.20;;;;;;6249988;23;20160;-89
2023/09/14 10:32:26;;;;;;;12.90;9.13;;;20.60;10.50;;;;;;6223771;23;20171;-91
2023/09/14 10:34:55;;;;;;;12.13;8.97;;;20.60;22.10;;;;;;6251339;22;20160;-92
2023/09/14 10:37:23;;;;;;;9.90;8.27;;;20.70;24.30;;;;;;6255536;22;20159;-86
2023/09/14 10:39:50;;;;;;;11.10;8.90;;;20.70;21.10;;;;;;6263202;22;20155;-91
2023/09/14 10:42:16;;;;;;;12.47;8.77;;;20.90;23.40;;;;;;6227100;23;20608;-91
2023/09/14 10:44:41;;;;;;;10.70;7.80;;;21.00;11.10;;;;;;6249954;23;20191;-90
2023/09/14 10:47:09;;;;;;;8.27;7.40;;;21.10;14.00;;;;;;6225143;23;20183;-92
2023/09/14 10:49:36;;;;;;;10.70;7.60;;;21.20;8.60;;;;;;6250269;23;20506;-93
2023/09/14 10:52:02;;;;;;;7.63;5.77;;;21.20;1.00;;;;;;6250217;23;20496;-90
2023/09/14 10:54:31;;;;;;;10.07;7.60;;;21.40;1.00;;;;;;6251027;23;20171;-90
2023/09/14 10:56:58;;;;;;;11.03;8.07;;;21.50;1.00;;;;;;6250565;23;20176;-91
2023/09/14 10:59:52;;;;;;;9.77;7.80;;;21.50;1.00;;;;;;6250564;23;20156;-92
2023/09/14 11:02:54;;;;;;;9.00;7.30;;;21.40;1.00;;;;;;6245620;23;20259;-90
2023/09/14 11:05:23;;;;;;;12.03;9.90;;;21.50;1.00;;;;;;6194092;23;20196;-88
2023/09/14 11:08:00;;;;;;;17.63;10.47;;;21.60;1.00;;;;;;6247377;23;20187;-91
2023/09/14 11:10:27;;;;;;;16.30;11.37;;;21.70;1.00;;;;;;6251348;23;20206;-93
2023/09/14 11:13:19;;;;;;;11.10;7.80;;;21.90;1.00;;;;;;6250302;23;20243;-92
2023/09/14 11:16:04;;;;;;;10.43;6.40;;;21.80;1.00;;;;;;6250331;23;20163;-90
2023/09/14 11:18:35;;;;;;;8.87;5.87;;;21.90;1.00;;;;;;6250849;23;20186;-91
2023/09/14 11:21:01;;;;;;;8.57;6.57;;;21.90;1.00;;;;;;6250995;23;20159;-88
2023/09/14 11:23:35;;;;;;;8.07;5.77;;;22.00;1.00;;;;;;6250572;23;20294;-90
2023/09/14 11:26:02;;;;;;;8.53;5.97;;;22.10;1.00;;;;;;6250275;23;20175;-91
2023/09/14 11:28:29;;;;;;;7.53;5.30;;;22.10;1.00;;;;;;6250310;23;20159;-92
2023/09/14 11:30:55;;;;;;;12.63;7.23;;;22.00;1.00;;;;;;6250062;23;20230;-88
2023/09/14 11:33:22;;;;;;;8.90;7.17;;;21.90;1.00;;;;;;6252451;23;20148;-91
2023/09/14 11:35:50;;;;;;;8.40;6.70;;;21.60;1.00;;;;;;6250409;23;20213;-91
2023/09/14 11:38:23;;;;;;;11.60;8.27;;;21.60;1.00;;;;;;6249987;23;20162;-93
2023/09/14 11:40:49;;;;;;;11.73;8.43;;;21.50;1.00;;;;;;6250968;23;20536;-90
2023/09/14 11:43:38;;;;;;;11.07;8.30;;;21.40;1.00;;;;;;6250096;23;20178;-90
2023/09/14 11:46:05;;;;;;;9.13;6.63;;;21.30;1.00;;;;;;6252341;22;20223;-93
2023/09/14 11:48:39;;;;;;;7.23;4.37;;;21.10;1.00;;;;;;6250576;23;20577;-91
2023/09/14 11:51:06;;;;;;;4.93;4.13;;;21.20;1.00;;;;;;6251273;23;20238;-90
2023/09/14 11:53:33;;;;;;;6.97;5.30;;;21.40;1.00;;;;;;6250833;23;20239;-91
2023/09/14 11:55:59;;;;;;;7.17;4.73;;;21.60;1.00;;;;;;6251491;23;20202;-92
2023/09/14 11:58:25;;;;;;;6.87;4.80;;;21.80;1.00;;;;;;6251031;23;20667;-93
2023/09/14 12:00:53;;;;;;;7.40;4.90;;;21.90;1.00;;;;;;6252373;22;20159;-91
2023/09/14 12:03:18;;;;;;;6.03;4.40;;;22.00;1.00;;;;;;6226300;23;20194;-93
2023/09/14 12:05:46;;;;;;;6.57;4.93;;;22.00;1.00;;;;;;6223902;23;20592;-91
2023/09/14 12:08:16;;;;;;;6.60;4.73;;;22.00;1.00;;;;;;6248940;23;20542;-86
2023/09/14 12:10:43;;;;;;;5.60;4.20;;;22.10;1.00;;;;;;6248983;23;20155;-90
2023/09/14 12:13:18;;;;;;;3.73;3.33;;;22.00;1.00;;;;;;6248835;23;20156;-86
2023/09/14 12:15:59;;;;;;;4.67;3.70;;;22.00;1.00;;;;;;6249042;23;20189;-90
2023/09/14 12:18:41;;;;;;;4.43;3.47;;;22.20;1.00;;;;;;6223996;23;20578;-89
2023/09/14 12:21:09;;;;;;;3.90;2.90;;;22.40;1.00;;;;;;6250755;22;20136;-86
2023/09/14 12:23:38;;;;;;;3.93;2.90;;;22.40;1.00;;;;;;6250056;23;20191;-91
2023/09/14 12:26:08;;;;;;;3.67;3.03;;;22.60;1.00;;;;;;6249604;23;20175;-89
2023/09/14 12:28:34;;;;;;;7.93;3.13;;;22.80;1.00;;;;;;6250327;22;20568;-87
2023/09/14 12:31:01;;;;;;;7.93;3.50;;;22.90;1.00;;;;;;6251103;22;20234;-87
2023/09/14 12:33:27;;;;;;;6.03;3.60;;;23.00;1.00;;;;;;6248872;23;20477;-86
2023/09/14 12:35:53;;;;;;;7.63;4.27;;;23.10;1.00;;;;;;6249781;23;20711;-88
2023/09/14 12:38:18;;;;;;;6.83;4.10;;;23.30;1.00;;;;;;6251281;23;20160;-87
2023/09/14 12:40:46;;;;;;;5.23;3.57;;;23.20;1.00;;;;;;6263829;22;20181;-89
2023/09/14 12:43:13;;;;;;;4.63;3.43;;;23.10;1.00;;;;;;6249418;23;20190;-88